Las Vegas, New Mexico
Current Conditions -  °F | °C
As of 4:53 AM on Monday 22 Dec 2014 (Local Time) from KLVS Reporting Station
Clear Clear  
Wind Chill: 34°   Ceiling: Unl
Heat Index: 43°   Visibility: 10mi
Dew Point: 24°   Wind: 23mph
Humidity: 47%   Direction: 310°NW
Pressure: 29.74"   Gusts: 31mph
Location:  35.6°N, 105.21°W
Report Text: KLVS 221153Z AUTO 31020G27KT 10SM CLR 06/M04 A2974 RMK AO2 PK WND 30032/1118 SLP015 T00611044 10067 20006 55007
Loading
Personal Weather Stations






























Interactive Weather Map New forecast layout! Learn more

10-Day Weather Forecast

Advertisements
Track Severe Weather on mobile